KACK/ACK METAR and TAF weather

Enter ICAO airport designator
Station Type Date Time Source
KACK METAR 2022/01/25 03:53 UTC NOAA

KACK 250353Z AUTO 17013KT 10SM BKN036 BKN045 04/M02 A2990 RMK AO2 SLP126 T00441017 $


Station Type Date Time Source
KACK Decoded METAR 2022/01/25 03:53 UTC NOAA

NANTUCKET MEMORIAL AIRPORT, MA, United States (KACK) 41-15N 70-04W 16M
Jan 24, 2022 - 10:53 PM EST / 2022.01.25 0353 UTC
Wind: from the S (170 degrees) at 15 MPH (13 KT):0
Visibility: 10 mile(s):0
Sky conditions: mostly cloudy
Temperature: 39.9 F (4.4 C)
Dew Point: 28.9 F (-1.7 C)
Relative Humidity: 64%
Pressure (altimeter): 29.9 in. Hg (1012 hPa)
ob: KACK 250353Z AUTO 17013KT 10SM BKN036 BKN045 04/M02 A2990 RMK AO2 SLP126 T00441017
cycle: 4

Station Type Date Time Source
KACK TAF 2022/01/24 18:42 UTC NOAA

TAF KACK 241741Z 2418/2518 34007KT P6SM SCT100
FM242300 13004KT P6SM BKN100
FM250300 16008KT P6SM OVC050
FM250800 22009KT P6SM OVC035
FM250900 23009KT P6SM VCSH OVC030
FM251400 21011KT P6SM OVC035

Example: see airport list